sensor_id;sensor_type;location;lat;lon;timestamp;P1;durP1;ratioP1;P2;durP2;ratioP2
52296;SDS011;38244;51.046;17.038;2023-08-12T00:08:38;0.00;;;0.00;;
52296;SDS011;38244;51.046;17.038;2023-08-12T00:18:54;0.00;;;0.00;;
52296;SDS011;38244;51.046;17.038;2023-08-12T01:17:00;0.00;;;0.00;;
52296;SDS011;38244;51.046;17.038;2023-08-12T01:20:25;0.00;;;0.00;;
52296;SDS011;38244;51.046;17.038;2023-08-12T01:37:44;0.00;;;0.00;;
52296;SDS011;38244;51.046;17.038;2023-08-12T01:41:08;0.00;;;0.00;;
52296;SDS011;38244;51.046;17.038;2023-08-12T01:47:51;0.00;;;0.00;;
52296;SDS011;38244;51.046;17.038;2023-08-12T01:58:00;0.00;;;0.00;;
52296;SDS011;38244;51.046;17.038;2023-08-12T02:08:16;0.00;;;0.00;;
52296;SDS011;38244;51.046;17.038;2023-08-12T02:14:58;0.00;;;0.00;;
52296;SDS011;38244;51.046;17.038;2023-08-12T02:21:49;0.00;;;0.00;;
52296;SDS011;38244;51.046;17.038;2023-08-12T02:28:38;0.00;;;0.00;;
52296;SDS011;38244;51.046;17.038;2023-08-12T02:35:21;0.00;;;0.00;;
52296;SDS011;38244;51.046;17.038;2023-08-12T02:48:57;0.00;;;0.00;;
52296;SDS011;38244;51.046;17.038;2023-08-12T02:59:12;0.00;;;0.00;;
52296;SDS011;38244;51.046;17.038;2023-08-12T03:02:36;0.00;;;0.00;;
52296;SDS011;38244;51.046;17.038;2023-08-12T03:05:59;0.00;;;0.00;;
52296;SDS011;38244;51.046;17.038;2023-08-12T03:15:35;0.00;;;0.00;;
52296;SDS011;38244;51.046;17.038;2023-08-12T03:22:25;0.00;;;0.00;;
52296;SDS011;38244;51.046;17.038;2023-08-12T03:25:49;0.00;;;0.00;;
52296;SDS011;38244;51.046;17.038;2023-08-12T03:29:19;0.00;;;0.00;;
52296;SDS011;38244;51.046;17.038;2023-08-12T03:42:46;0.00;;;0.00;;
52296;SDS011;38244;51.046;17.038;2023-08-12T03:49:42;0.00;;;0.00;;
52296;SDS011;38244;51.046;17.038;2023-08-12T03:53:09;0.00;;;0.00;;
52296;SDS011;38244;51.046;17.038;2023-08-12T03:56:33;0.00;;;0.00;;
52296;SDS011;38244;51.046;17.038;2023-08-12T04:03:19;0.00;;;0.00;;
52296;SDS011;38244;51.046;17.038;2023-08-12T04:06:47;0.00;;;0.00;;
52296;SDS011;38244;51.046;17.038;2023-08-12T04:13:32;0.00;;;0.00;;
52296;SDS011;38244;51.046;17.038;2023-08-12T04:23:45;0.00;;;0.00;;
52296;SDS011;38244;51.046;17.038;2023-08-12T04:30:40;0.00;;;0.00;;
52296;SDS011;38244;51.046;17.038;2023-08-12T04:34:02;0.00;;;0.00;;
52296;SDS011;38244;51.046;17.038;2023-08-12T04:53:38;0.00;;;0.00;;
52296;SDS011;38244;51.046;17.038;2023-08-12T05:03:33;0.00;;;0.00;;
52296;SDS011;38244;51.046;17.038;2023-08-12T05:06:16;0.00;;;0.00;;
52296;SDS011;38244;51.046;17.038;2023-08-12T05:08:53;0.00;;;0.00;;
52296;SDS011;38244;51.046;17.038;2023-08-12T05:14:30;0.00;;;0.00;;
52296;SDS011;38244;51.046;17.038;2023-08-12T05:16:58;0.10;;;0.10;;
52296;SDS011;38244;51.046;17.038;2023-08-12T05:19:29;0.20;;;0.20;;
52296;SDS011;38244;51.046;17.038;2023-08-12T05:21:55;0.20;;;0.20;;
52296;SDS011;38244;51.046;17.038;2023-08-12T05:24:20;0.30;;;0.30;;
52296;SDS011;38244;51.046;17.038;2023-08-12T05:26:46;0.30;;;0.30;;
52296;SDS011;38244;51.046;17.038;2023-08-12T05:29:15;0.20;;;0.20;;
52296;SDS011;38244;51.046;17.038;2023-08-12T05:31:40;0.40;;;0.40;;
52296;SDS011;38244;51.046;17.038;2023-08-12T05:34:06;0.40;;;0.40;;
52296;SDS011;38244;51.046;17.038;2023-08-12T05:36:31;0.60;;;0.60;;
52296;SDS011;38244;51.046;17.038;2023-08-12T05:38:58;0.80;;;0.80;;
52296;SDS011;38244;51.046;17.038;2023-08-12T05:44:26;0.50;;;0.50;;
52296;SDS011;38244;51.046;17.038;2023-08-12T05:46:52;0.40;;;0.40;;
52296;SDS011;38244;51.046;17.038;2023-08-12T05:49:21;0.30;;;0.30;;
52296;SDS011;38244;51.046;17.038;2023-08-12T05:52:15;0.80;;;0.80;;
52296;SDS011;38244;51.046;17.038;2023-08-12T05:54:41;1.20;;;1.20;;
52296;SDS011;38244;51.046;17.038;2023-08-12T05:57:10;0.40;;;0.40;;
52296;SDS011;38244;51.046;17.038;2023-08-12T05:59:36;0.60;;;0.60;;
52296;SDS011;38244;51.046;17.038;2023-08-12T06:02:02;0.10;;;0.10;;
52296;SDS011;38244;51.046;17.038;2023-08-12T06:04:28;0.00;;;0.00;;
52296;SDS011;38244;51.046;17.038;2023-08-12T06:06:54;0.10;;;0.10;;
52296;SDS011;38244;51.046;17.038;2023-08-12T06:12:22;0.10;;;0.10;;
52296;SDS011;38244;51.046;17.038;2023-08-12T06:14:48;0.00;;;0.00;;
52296;SDS011;38244;51.046;17.038;2023-08-12T06:17:13;0.40;;;0.40;;
52296;SDS011;38244;51.046;17.038;2023-08-12T06:22:23;0.40;;;0.40;;
52296;SDS011;38244;51.046;17.038;2023-08-12T06:24:49;0.10;;;0.10;;
52296;SDS011;38244;51.046;17.038;2023-08-12T06:27:14;0.20;;;0.20;;
52296;SDS011;38244;51.046;17.038;2023-08-12T06:29:40;0.50;;;0.50;;
52296;SDS011;38244;51.046;17.038;2023-08-12T06:32:05;0.20;;;0.20;;
52296;SDS011;38244;51.046;17.038;2023-08-12T06:34:31;0.20;;;0.20;;
52296;SDS011;38244;51.046;17.038;2023-08-12T06:36:56;1.30;;;0.80;;
52296;SDS011;38244;51.046;17.038;2023-08-12T06:42:44;0.00;;;0.00;;
52296;SDS011;38244;51.046;17.038;2023-08-12T06:45:09;0.00;;;0.00;;
52296;SDS011;38244;51.046;17.038;2023-08-12T06:47:35;0.00;;;0.00;;
52296;SDS011;38244;51.046;17.038;2023-08-12T06:52:45;0.00;;;0.00;;
52296;SDS011;38244;51.046;17.038;2023-08-12T06:55:10;0.00;;;0.00;;
52296;SDS011;38244;51.046;17.038;2023-08-12T06:57:36;0.00;;;0.00;;
52296;SDS011;38244;51.046;17.038;2023-08-12T07:00:03;0.00;;;0.00;;
52296;SDS011;38244;51.046;17.038;2023-08-12T07:02:30;0.00;;;0.00;;
52296;SDS011;38244;51.046;17.038;2023-08-12T07:04:55;0.00;;;0.00;;
52296;SDS011;38244;51.046;17.038;2023-08-12T07:07:21;0.00;;;0.00;;
52296;SDS011;38244;51.046;17.038;2023-08-12T07:09:46;0.00;;;0.00;;
52296;SDS011;38244;51.046;17.038;2023-08-12T07:12:12;0.00;;;0.00;;
52296;SDS011;38244;51.046;17.038;2023-08-12T07:14:37;0.00;;;0.00;;
52296;SDS011;38244;51.046;17.038;2023-08-12T07:17:03;0.00;;;0.00;;
52296;SDS011;38244;51.046;17.038;2023-08-12T07:22:15;0.00;;;0.00;;
52296;SDS011;38244;51.046;17.038;2023-08-12T07:24:44;0.00;;;0.00;;
52296;SDS011;38244;51.046;17.038;2023-08-12T07:27:10;0.00;;;0.00;;
52296;SDS011;38244;51.046;17.038;2023-08-12T07:32:20;0.00;;;0.00;;
52296;SDS011;38244;51.046;17.038;2023-08-12T07:34:46;0.00;;;0.00;;
52296;SDS011;38244;51.046;17.038;2023-08-12T07:37:11;0.00;;;0.00;;
52296;SDS011;38244;51.046;17.038;2023-08-12T07:42:21;0.00;;;0.00;;
52296;SDS011;38244;51.046;17.038;2023-08-12T07:44:47;0.00;;;0.00;;
52296;SDS011;38244;51.046;17.038;2023-08-12T07:47:13;0.00;;;0.00;;
52296;SDS011;38244;51.046;17.038;2023-08-12T07:52:27;0.00;;;0.00;;
52296;SDS011;38244;51.046;17.038;2023-08-12T07:54:52;0.00;;;0.00;;
52296;SDS011;38244;51.046;17.038;2023-08-12T07:57:17;0.00;;;0.00;;
52296;SDS011;38244;51.046;17.038;2023-08-12T07:59:47;0.00;;;0.00;;
52296;SDS011;38244;51.046;17.038;2023-08-12T08:02:12;0.00;;;0.00;;
52296;SDS011;38244;51.046;17.038;2023-08-12T08:04:40;0.00;;;0.00;;
52296;SDS011;38244;51.046;17.038;2023-08-12T08:07:05;0.00;;;0.00;;
52296;SDS011;38244;51.046;17.038;2023-08-12T08:09:31;0.00;;;0.00;;
52296;SDS011;38244;51.046;17.038;2023-08-12T08:11:56;0.00;;;0.00;;
52296;SDS011;38244;51.046;17.038;2023-08-12T08:14:22;0.00;;;0.00;;
52296;SDS011;38244;51.046;17.038;2023-08-12T08:16:47;0.00;;;0.00;;
52296;SDS011;38244;51.046;17.038;2023-08-12T08:19:13;0.00;;;0.00;;
52296;SDS011;38244;51.046;17.038;2023-08-12T08:21:38;0.00;;;0.00;;
52296;SDS011;38244;51.046;17.038;2023-08-12T08:24:04;0.00;;;0.00;;
52296;SDS011;38244;51.046;17.038;2023-08-12T08:26:29;0.00;;;0.00;;
52296;SDS011;38244;51.046;17.038;2023-08-12T08:28:55;0.00;;;0.00;;
52296;SDS011;38244;51.046;17.038;2023-08-12T08:34:23;0.00;;;0.00;;
52296;SDS011;38244;51.046;17.038;2023-08-12T08:36:49;0.00;;;0.00;;
52296;SDS011;38244;51.046;17.038;2023-08-12T08:41:59;0.00;;;0.00;;
52296;SDS011;38244;51.046;17.038;2023-08-12T08:44:27;0.00;;;0.00;;
52296;SDS011;38244;51.046;17.038;2023-08-12T08:46:57;0.00;;;0.00;;
52296;SDS011;38244;51.046;17.038;2023-08-12T08:49:25;0.00;;;0.00;;
52296;SDS011;38244;51.046;17.038;2023-08-12T08:51:51;0.00;;;0.00;;
52296;SDS011;38244;51.046;17.038;2023-08-12T08:54:18;0.00;;;0.00;;
52296;SDS011;38244;51.046;17.038;2023-08-12T08:56:44;0.00;;;0.00;;
52296;SDS011;38244;51.046;17.038;2023-08-12T08:59:10;0.00;;;0.00;;
52296;SDS011;38244;51.046;17.038;2023-08-12T09:01:36;0.00;;;0.00;;
52296;SDS011;38244;51.046;17.038;2023-08-12T09:04:03;0.00;;;0.00;;
52296;SDS011;38244;51.046;17.038;2023-08-12T09:06:29;0.00;;;0.00;;
52296;SDS011;38244;51.046;17.038;2023-08-12T09:08:55;0.00;;;0.00;;
52296;SDS011;38244;51.046;17.038;2023-08-12T09:11:21;0.00;;;0.00;;
52296;SDS011;38244;51.046;17.038;2023-08-12T09:13:47;0.00;;;0.00;;
52296;SDS011;38244;51.046;17.038;2023-08-12T09:16:13;0.00;;;0.00;;
52296;SDS011;38244;51.046;17.038;2023-08-12T09:18:40;0.00;;;0.00;;
52296;SDS011;38244;51.046;17.038;2023-08-12T09:24:12;0.00;;;0.00;;
52296;SDS011;38244;51.046;17.038;2023-08-12T09:26:37;0.00;;;0.00;;
52296;SDS011;38244;51.046;17.038;2023-08-12T09:29:03;0.00;;;0.00;;
52296;SDS011;38244;51.046;17.038;2023-08-12T09:31:29;0.00;;;0.00;;
52296;SDS011;38244;51.046;17.038;2023-08-12T09:33:58;0.00;;;0.00;;
52296;SDS011;38244;51.046;17.038;2023-08-12T09:36:27;0.00;;;0.00;;
52296;SDS011;38244;51.046;17.038;2023-08-12T09:38:53;0.00;;;0.00;;
52296;SDS011;38244;51.046;17.038;2023-08-12T09:41:22;0.00;;;0.00;;
52296;SDS011;38244;51.046;17.038;2023-08-12T09:43:50;0.00;;;0.00;;
52296;SDS011;38244;51.046;17.038;2023-08-12T09:46:16;0.00;;;0.00;;
52296;SDS011;38244;51.046;17.038;2023-08-12T09:48:42;0.00;;;0.00;;
52296;SDS011;38244;51.046;17.038;2023-08-12T09:53:52;0.00;;;0.00;;
52296;SDS011;38244;51.046;17.038;2023-08-12T09:56:18;0.00;;;0.00;;
52296;SDS011;38244;51.046;17.038;2023-08-12T09:58:48;0.00;;;0.00;;
52296;SDS011;38244;51.046;17.038;2023-08-12T10:03:59;0.00;;;0.00;;
52296;SDS011;38244;51.046;17.038;2023-08-12T10:06:25;0.00;;;0.00;;
52296;SDS011;38244;51.046;17.038;2023-08-12T10:08:50;0.00;;;0.00;;
52296;SDS011;38244;51.046;17.038;2023-08-12T10:11:16;0.00;;;0.00;;
52296;SDS011;38244;51.046;17.038;2023-08-12T10:13:42;0.00;;;0.00;;
52296;SDS011;38244;51.046;17.038;2023-08-12T10:16:08;0.00;;;0.00;;
52296;SDS011;38244;51.046;17.038;2023-08-12T10:18:34;0.00;;;0.00;;
52296;SDS011;38244;51.046;17.038;2023-08-12T10:23:50;0.00;;;0.00;;
52296;SDS011;38244;51.046;17.038;2023-08-12T10:26:19;0.00;;;0.00;;
52296;SDS011;38244;51.046;17.038;2023-08-12T10:28:45;0.00;;;0.00;;
52296;SDS011;38244;51.046;17.038;2023-08-12T10:31:12;0.00;;;0.00;;
52296;SDS011;38244;51.046;17.038;2023-08-12T10:33:38;0.00;;;0.00;;
52296;SDS011;38244;51.046;17.038;2023-08-12T10:36:04;0.00;;;0.00;;
52296;SDS011;38244;51.046;17.038;2023-08-12T10:38:33;0.00;;;0.00;;
52296;SDS011;38244;51.046;17.038;2023-08-12T10:44:21;0.00;;;0.00;;
52296;SDS011;38244;51.046;17.038;2023-08-12T10:46:54;0.00;;;0.00;;
52296;SDS011;38244;51.046;17.038;2023-08-12T10:49:20;0.00;;;0.00;;
52296;SDS011;38244;51.046;17.038;2023-08-12T10:51:51;0.00;;;0.00;;
52296;SDS011;38244;51.046;17.038;2023-08-12T10:54:25;0.00;;;0.00;;
52296;SDS011;38244;51.046;17.038;2023-08-12T11:04:54;0.00;;;0.00;;
52296;SDS011;38244;51.046;17.038;2023-08-12T11:07:27;0.00;;;0.00;;
52296;SDS011;38244;51.046;17.038;2023-08-12T11:13:49;0.00;;;0.00;;
52296;SDS011;38244;51.046;17.038;2023-08-12T11:16:31;0.00;;;0.00;;
52296;SDS011;38244;51.046;17.038;2023-08-12T11:18:59;0.00;;;0.00;;
52296;SDS011;38244;51.046;17.038;2023-08-12T11:21:25;0.00;;;0.00;;
52296;SDS011;38244;51.046;17.038;2023-08-12T11:23:54;0.00;;;0.00;;
52296;SDS011;38244;51.046;17.038;2023-08-12T11:26:23;0.00;;;0.00;;
52296;SDS011;38244;51.046;17.038;2023-08-12T11:28:49;0.00;;;0.00;;
52296;SDS011;38244;51.046;17.038;2023-08-12T11:31:17;0.00;;;0.00;;
52296;SDS011;38244;51.046;17.038;2023-08-12T11:33:44;0.00;;;0.00;;
52296;SDS011;38244;51.046;17.038;2023-08-12T11:36:09;0.00;;;0.00;;
52296;SDS011;38244;51.046;17.038;2023-08-12T11:38:35;0.00;;;0.00;;
52296;SDS011;38244;51.046;17.038;2023-08-12T11:43:49;0.00;;;0.00;;
52296;SDS011;38244;51.046;17.038;2023-08-12T11:46:20;0.00;;;0.00;;
52296;SDS011;38244;51.046;17.038;2023-08-12T11:48:48;0.00;;;0.00;;
52296;SDS011;38244;51.046;17.038;2023-08-12T12:02:58;0.00;;;0.00;;
52296;SDS011;38244;51.046;17.038;2023-08-12T12:05:34;0.00;;;0.00;;
52296;SDS011;38244;51.046;17.038;2023-08-12T12:08:14;0.00;;;0.00;;
52296;SDS011;38244;51.046;17.038;2023-08-12T12:13:54;0.00;;;0.00;;
52296;SDS011;38244;51.046;17.038;2023-08-12T12:16:27;0.00;;;0.00;;
52296;SDS011;38244;51.046;17.038;2023-08-12T12:19:13;0.00;;;0.00;;
52296;SDS011;38244;51.046;17.038;2023-08-12T12:21:46;0.00;;;0.00;;
52296;SDS011;38244;51.046;17.038;2023-08-12T12:24:18;0.00;;;0.00;;
52296;SDS011;38244;51.046;17.038;2023-08-12T12:26:46;0.00;;;0.00;;
52296;SDS011;38244;51.046;17.038;2023-08-12T12:29:15;0.00;;;0.00;;
52296;SDS011;38244;51.046;17.038;2023-08-12T12:31:46;0.00;;;0.00;;
52296;SDS011;38244;51.046;17.038;2023-08-12T12:34:17;0.00;;;0.00;;
52296;SDS011;38244;51.046;17.038;2023-08-12T12:36:50;0.00;;;0.00;;
52296;SDS011;38244;51.046;17.038;2023-08-12T12:39:18;0.00;;;0.00;;
52296;SDS011;38244;51.046;17.038;2023-08-12T12:41:47;0.00;;;0.00;;
52296;SDS011;38244;51.046;17.038;2023-08-12T12:44:12;0.00;;;0.00;;
52296;SDS011;38244;51.046;17.038;2023-08-12T12:46:40;0.00;;;0.00;;
52296;SDS011;38244;51.046;17.038;2023-08-12T12:49:09;0.00;;;0.00;;
52296;SDS011;38244;51.046;17.038;2023-08-12T12:51:40;0.00;;;0.00;;
52296;SDS011;38244;51.046;17.038;2023-08-12T12:54:12;0.00;;;0.00;;
52296;SDS011;38244;51.046;17.038;2023-08-12T12:56:44;0.00;;;0.00;;
52296;SDS011;38244;51.046;17.038;2023-08-12T12:59:15;0.00;;;0.00;;
52296;SDS011;38244;51.046;17.038;2023-08-12T13:01:48;0.00;;;0.00;;
52296;SDS011;38244;51.046;17.038;2023-08-12T13:04:16;0.00;;;0.00;;
52296;SDS011;38244;51.046;17.038;2023-08-12T13:06:49;0.00;;;0.00;;
52296;SDS011;38244;51.046;17.038;2023-08-12T13:09:25;0.00;;;0.00;;
52296;SDS011;38244;51.046;17.038;2023-08-12T13:11:56;0.00;;;0.00;;
52296;SDS011;38244;51.046;17.038;2023-08-12T13:14:24;0.00;;;0.00;;
52296;SDS011;38244;51.046;17.038;2023-08-12T13:16:55;0.00;;;0.00;;
52296;SDS011;38244;51.046;17.038;2023-08-12T13:19:21;0.00;;;0.00;;
52296;SDS011;38244;51.046;17.038;2023-08-12T13:21:47;0.00;;;0.00;;
52296;SDS011;38244;51.046;17.038;2023-08-12T13:24:12;0.00;;;0.00;;
52296;SDS011;38244;51.046;17.038;2023-08-12T13:26:38;0.00;;;0.00;;
52296;SDS011;38244;51.046;17.038;2023-08-12T13:29:09;0.00;;;0.00;;
52296;SDS011;38244;51.046;17.038;2023-08-12T13:31:42;0.00;;;0.00;;
52296;SDS011;38244;51.046;17.038;2023-08-12T13:34:12;0.00;;;0.00;;
52296;SDS011;38244;51.046;17.038;2023-08-12T13:36:47;0.00;;;0.00;;
52296;SDS011;38244;51.046;17.038;2023-08-12T13:39:16;0.00;;;0.00;;
52296;SDS011;38244;51.046;17.038;2023-08-12T13:41:49;0.00;;;0.00;;
52296;SDS011;38244;51.046;17.038;2023-08-12T13:44:19;0.00;;;0.00;;
52296;SDS011;38244;51.046;17.038;2023-08-12T13:46:50;0.00;;;0.00;;
52296;SDS011;38244;51.046;17.038;2023-08-12T13:49:21;0.00;;;0.00;;
52296;SDS011;38244;51.046;17.038;2023-08-12T13:51:55;0.00;;;0.00;;
52296;SDS011;38244;51.046;17.038;2023-08-12T13:54:29;0.00;;;0.00;;
52296;SDS011;38244;51.046;17.038;2023-08-12T13:56:59;0.00;;;0.00;;
52296;SDS011;38244;51.046;17.038;2023-08-12T13:59:31;0.00;;;0.00;;
52296;SDS011;38244;51.046;17.038;2023-08-12T14:01:57;0.00;;;0.00;;
52296;SDS011;38244;51.046;17.038;2023-08-12T14:04:22;0.00;;;0.00;;
52296;SDS011;38244;51.046;17.038;2023-08-12T14:06:48;0.00;;;0.00;;
52296;SDS011;38244;51.046;17.038;2023-08-12T14:09:21;0.00;;;0.00;;
52296;SDS011;38244;51.046;17.038;2023-08-12T14:11:52;0.00;;;0.00;;
52296;SDS011;38244;51.046;17.038;2023-08-12T14:14:18;0.00;;;0.00;;
52296;SDS011;38244;51.046;17.038;2023-08-12T14:16:49;0.00;;;0.00;;
52296;SDS011;38244;51.046;17.038;2023-08-12T14:19:20;0.00;;;0.00;;
52296;SDS011;38244;51.046;17.038;2023-08-12T14:21:48;0.00;;;0.00;;
52296;SDS011;38244;51.046;17.038;2023-08-12T14:24:17;0.00;;;0.00;;
52296;SDS011;38244;51.046;17.038;2023-08-12T14:26:43;0.00;;;0.00;;
52296;SDS011;38244;51.046;17.038;2023-08-12T14:29:12;0.00;;;0.00;;
52296;SDS011;38244;51.046;17.038;2023-08-12T14:31:43;0.00;;;0.00;;
52296;SDS011;38244;51.046;17.038;2023-08-12T14:34:08;0.00;;;0.00;;
52296;SDS011;38244;51.046;17.038;2023-08-12T14:36:37;0.00;;;0.00;;
52296;SDS011;38244;51.046;17.038;2023-08-12T14:41:54;0.00;;;0.00;;
52296;SDS011;38244;51.046;17.038;2023-08-12T14:44:23;0.00;;;0.00;;
52296;SDS011;38244;51.046;17.038;2023-08-12T14:46:48;0.00;;;0.00;;
52296;SDS011;38244;51.046;17.038;2023-08-12T14:49:20;0.00;;;0.00;;
52296;SDS011;38244;51.046;17.038;2023-08-12T14:51:46;0.00;;;0.00;;
52296;SDS011;38244;51.046;17.038;2023-08-12T14:54:11;0.00;;;0.00;;
52296;SDS011;38244;51.046;17.038;2023-08-12T14:56:37;0.00;;;0.00;;
52296;SDS011;38244;51.046;17.038;2023-08-12T14:59:08;0.00;;;0.00;;
52296;SDS011;38244;51.046;17.038;2023-08-12T15:01:36;0.00;;;0.00;;
52296;SDS011;38244;51.046;17.038;2023-08-12T15:04:04;0.00;;;0.00;;
52296;SDS011;38244;51.046;17.038;2023-08-12T15:06:33;0.00;;;0.00;;
52296;SDS011;38244;51.046;17.038;2023-08-12T15:09:01;0.00;;;0.00;;
52296;SDS011;38244;51.046;17.038;2023-08-12T15:11:29;0.00;;;0.00;;
52296;SDS011;38244;51.046;17.038;2023-08-12T15:13:58;0.00;;;0.00;;
52296;SDS011;38244;51.046;17.038;2023-08-12T15:16:27;0.00;;;0.00;;
52296;SDS011;38244;51.046;17.038;2023-08-12T15:18:55;0.00;;;0.00;;
52296;SDS011;38244;51.046;17.038;2023-08-12T15:21:24;0.00;;;0.00;;
52296;SDS011;38244;51.046;17.038;2023-08-12T15:23:53;0.00;;;0.00;;
52296;SDS011;38244;51.046;17.038;2023-08-12T15:26:19;0.00;;;0.00;;
52296;SDS011;38244;51.046;17.038;2023-08-12T15:28:49;0.00;;;0.00;;
52296;SDS011;38244;51.046;17.038;2023-08-12T15:34:23;0.00;;;0.00;;
52296;SDS011;38244;51.046;17.038;2023-08-12T15:36:56;0.00;;;0.00;;
52296;SDS011;38244;51.046;17.038;2023-08-12T15:39:31;0.00;;;0.00;;
52296;SDS011;38244;51.046;17.038;2023-08-12T15:42:02;0.00;;;0.00;;
52296;SDS011;38244;51.046;17.038;2023-08-12T15:44:34;0.00;;;0.00;;
52296;SDS011;38244;51.046;17.038;2023-08-12T15:47:04;0.00;;;0.00;;
52296;SDS011;38244;51.046;17.038;2023-08-12T15:52:26;0.00;;;0.00;;
52296;SDS011;38244;51.046;17.038;2023-08-12T15:55:00;0.00;;;0.00;;
52296;SDS011;38244;51.046;17.038;2023-08-12T15:57:31;0.00;;;0.00;;
52296;SDS011;38244;51.046;17.038;2023-08-12T15:59:57;0.00;;;0.00;;
52296;SDS011;38244;51.046;17.038;2023-08-12T16:02:25;0.00;;;0.00;;
52296;SDS011;38244;51.046;17.038;2023-08-12T16:04:57;0.00;;;0.00;;
52296;SDS011;38244;51.046;17.038;2023-08-12T16:07:26;0.00;;;0.00;;
52296;SDS011;38244;51.046;17.038;2023-08-12T16:10:01;0.00;;;0.00;;
52296;SDS011;38244;51.046;17.038;2023-08-12T16:12:32;0.00;;;0.00;;
52296;SDS011;38244;51.046;17.038;2023-08-12T16:15:03;0.00;;;0.00;;
52296;SDS011;38244;51.046;17.038;2023-08-12T16:17:38;0.00;;;0.00;;
52296;SDS011;38244;51.046;17.038;2023-08-12T16:20:13;0.00;;;0.00;;
52296;SDS011;38244;51.046;17.038;2023-08-12T16:22:43;0.00;;;0.00;;
52296;SDS011;38244;51.046;17.038;2023-08-12T16:25:14;0.00;;;0.00;;
52296;SDS011;38244;51.046;17.038;2023-08-12T16:27:45;0.00;;;0.00;;
52296;SDS011;38244;51.046;17.038;2023-08-12T16:30:16;0.00;;;0.00;;
52296;SDS011;38244;51.046;17.038;2023-08-12T16:32:48;0.00;;;0.00;;
52296;SDS011;38244;51.046;17.038;2023-08-12T16:35:16;0.00;;;0.00;;
52296;SDS011;38244;51.046;17.038;2023-08-12T16:37:49;0.00;;;0.00;;
52296;SDS011;38244;51.046;17.038;2023-08-12T16:40:27;0.00;;;0.00;;
52296;SDS011;38244;51.046;17.038;2023-08-12T16:43:00;0.00;;;0.00;;
52296;SDS011;38244;51.046;17.038;2023-08-12T16:45:29;0.00;;;0.00;;
52296;SDS011;38244;51.046;17.038;2023-08-12T16:47:57;0.00;;;0.00;;
52296;SDS011;38244;51.046;17.038;2023-08-12T16:50:39;0.00;;;0.00;;
52296;SDS011;38244;51.046;17.038;2023-08-12T16:53:15;0.00;;;0.00;;
52296;SDS011;38244;51.046;17.038;2023-08-12T16:55:55;0.00;;;0.00;;
52296;SDS011;38244;51.046;17.038;2023-08-12T16:58:26;0.00;;;0.00;;
52296;SDS011;38244;51.046;17.038;2023-08-12T17:01:00;0.00;;;0.00;;
52296;SDS011;38244;51.046;17.038;2023-08-12T17:03:34;0.00;;;0.00;;
52296;SDS011;38244;51.046;17.038;2023-08-12T17:06:11;0.00;;;0.00;;
52296;SDS011;38244;51.046;17.038;2023-08-12T17:08:47;0.00;;;0.00;;
52296;SDS011;38244;51.046;17.038;2023-08-12T17:11:26;0.00;;;0.00;;
52296;SDS011;38244;51.046;17.038;2023-08-12T17:14:02;0.00;;;0.00;;
52296;SDS011;38244;51.046;17.038;2023-08-12T17:16:36;0.00;;;0.00;;
52296;SDS011;38244;51.046;17.038;2023-08-12T17:19:13;0.00;;;0.00;;
52296;SDS011;38244;51.046;17.038;2023-08-12T17:21:53;0.00;;;0.00;;
52296;SDS011;38244;51.046;17.038;2023-08-12T17:24:31;0.00;;;0.00;;
52296;SDS011;38244;51.046;17.038;2023-08-12T17:27:33;0.00;;;0.00;;
52296;SDS011;38244;51.046;17.038;2023-08-12T17:30:21;0.00;;;0.00;;
52296;SDS011;38244;51.046;17.038;2023-08-12T17:32:52;0.00;;;0.00;;
52296;SDS011;38244;51.046;17.038;2023-08-12T17:35:23;0.00;;;0.00;;
52296;SDS011;38244;51.046;17.038;2023-08-12T17:37:58;0.00;;;0.00;;
52296;SDS011;38244;51.046;17.038;2023-08-12T17:40:34;0.00;;;0.00;;
52296;SDS011;38244;51.046;17.038;2023-08-12T17:43:13;0.00;;;0.00;;
52296;SDS011;38244;51.046;17.038;2023-08-12T17:45:46;0.00;;;0.00;;
52296;SDS011;38244;51.046;17.038;2023-08-12T17:48:33;0.00;;;0.00;;
52296;SDS011;38244;51.046;17.038;2023-08-12T17:51:13;0.00;;;0.00;;
52296;SDS011;38244;51.046;17.038;2023-08-12T17:54:15;0.00;;;0.00;;
52296;SDS011;38244;51.046;17.038;2023-08-12T17:57:15;0.00;;;0.00;;
52296;SDS011;38244;51.046;17.038;2023-08-12T18:00:09;0.00;;;0.00;;
52296;SDS011;38244;51.046;17.038;2023-08-12T18:03:00;0.00;;;0.00;;
52296;SDS011;38244;51.046;17.038;2023-08-12T18:05:40;0.00;;;0.00;;
52296;SDS011;38244;51.046;17.038;2023-08-12T18:08:22;0.10;;;0.00;;
52296;SDS011;38244;51.046;17.038;2023-08-12T18:14:11;0.00;;;0.00;;
52296;SDS011;38244;51.046;17.038;2023-08-12T18:17:10;0.00;;;0.00;;
52296;SDS011;38244;51.046;17.038;2023-08-12T18:23:20;0.00;;;0.00;;
52296;SDS011;38244;51.046;17.038;2023-08-12T18:32:13;0.00;;;0.00;;
52296;SDS011;38244;51.046;17.038;2023-08-12T18:35:18;0.00;;;0.00;;
52296;SDS011;38244;51.046;17.038;2023-08-12T18:38:29;0.00;;;0.00;;
52296;SDS011;38244;51.046;17.038;2023-08-12T18:44:45;0.00;;;0.00;;
52296;SDS011;38244;51.046;17.038;2023-08-12T18:47:39;0.00;;;0.00;;
52296;SDS011;38244;51.046;17.038;2023-08-12T18:53:16;0.00;;;0.00;;
52296;SDS011;38244;51.046;17.038;2023-08-12T18:56:05;0.00;;;0.00;;
52296;SDS011;38244;51.046;17.038;2023-08-12T18:59:06;0.00;;;0.00;;
52296;SDS011;38244;51.046;17.038;2023-08-12T19:02:04;0.00;;;0.00;;
52296;SDS011;38244;51.046;17.038;2023-08-12T19:04:51;0.00;;;0.00;;
52296;SDS011;38244;51.046;17.038;2023-08-12T19:07:32;0.00;;;0.00;;
52296;SDS011;38244;51.046;17.038;2023-08-12T19:20:15;0.00;;;0.00;;
52296;SDS011;38244;51.046;17.038;2023-08-12T19:23:18;0.00;;;0.00;;
52296;SDS011;38244;51.046;17.038;2023-08-12T19:26:20;0.00;;;0.00;;
52296;SDS011;38244;51.046;17.038;2023-08-12T19:29:30;0.00;;;0.00;;
52296;SDS011;38244;51.046;17.038;2023-08-12T19:45:41;0.00;;;0.00;;
52296;SDS011;38244;51.046;17.038;2023-08-12T19:49:05;0.00;;;0.00;;
52296;SDS011;38244;51.046;17.038;2023-08-12T19:55:22;0.00;;;0.00;;
52296;SDS011;38244;51.046;17.038;2023-08-12T19:58:41;0.00;;;0.00;;
52296;SDS011;38244;51.046;17.038;2023-08-12T20:08:51;0.00;;;0.00;;
52296;SDS011;38244;51.046;17.038;2023-08-12T20:18:29;0.00;;;0.00;;
52296;SDS011;38244;51.046;17.038;2023-08-12T20:21:33;0.00;;;0.00;;
52296;SDS011;38244;51.046;17.038;2023-08-12T20:24:47;0.00;;;0.00;;
52296;SDS011;38244;51.046;17.038;2023-08-12T20:34:16;0.00;;;0.00;;
52296;SDS011;38244;51.046;17.038;2023-08-12T20:46:37;0.00;;;0.00;;
52296;SDS011;38244;51.046;17.038;2023-08-12T20:53:12;0.00;;;0.00;;
52296;SDS011;38244;51.046;17.038;2023-08-12T20:56:09;0.00;;;0.00;;
52296;SDS011;38244;51.046;17.038;2023-08-12T20:59:13;0.00;;;0.00;;
52296;SDS011;38244;51.046;17.038;2023-08-12T21:34:44;0.00;;;0.00;;
52296;SDS011;38244;51.046;17.038;2023-08-12T21:37:53;0.00;;;0.00;;
52296;SDS011;38244;51.046;17.038;2023-08-12T21:44:12;0.00;;;0.00;;
52296;SDS011;38244;51.046;17.038;2023-08-12T22:06:35;0.00;;;0.00;;
52296;SDS011;38244;51.046;17.038;2023-08-12T22:13:28;0.00;;;0.00;;
52296;SDS011;38244;51.046;17.038;2023-08-12T22:20:18;0.00;;;0.00;;
52296;SDS011;38244;51.046;17.038;2023-08-12T22:43:26;0.00;;;0.00;;
52296;SDS011;38244;51.046;17.038;2023-08-12T22:46:37;0.00;;;0.00;;
52296;SDS011;38244;51.046;17.038;2023-08-12T22:53:13;0.00;;;0.00;;
52296;SDS011;38244;51.046;17.038;2023-08-12T22:56:10;0.00;;;0.00;;
52296;SDS011;38244;51.046;17.038;2023-08-12T23:12:17;0.00;;;0.00;;
52296;SDS011;38244;51.046;17.038;2023-08-12T23:15:29;0.00;;;0.00;;
52296;SDS011;38244;51.046;17.038;2023-08-12T23:21:59;0.00;;;0.00;;